Pays
Station

 

Conditions  météo  pour  Tucuman Aerodrome  -  Argentine    Argentine

  
11 °C
    
 
 

METAR pour Tucuman Aerodrome :

SANT 200100Z 34006KT 4000 FU NSC 11/08 Q1015

 

Voici le bulletin pour Tucuman Aerodrome - Argentine.
 
Le bulletin a été fait il y a une heure et 3 minutes, à 01:00 UTC .
Le vent soufflait à la vitesse de 3.1 mètres par seconde de Nord/Nord-ouest (340°).
 
La température était de 11 °C, avec un point de rosée à 8 °C.
La pression atmosphérique était de 1015 hPa.
L'humidité relative était de 81.7%.
 
La visibilité globale était de 4000 mètres.
 
Actuellement fumée.

 
 
 

Pays :   A   B   C   D   E   F   G   H   I   J   K   L   M   N   O   P   Q   R   S   T   U   V   W   Y   Z

 

Partenaires :  Info Météo avec Met'info
Météo Marine avec MeteoMarine.net
Infos Site  |  Infos Légales  |  Crédits  |  Confidentialité
Contactez-nous  |  Ajouter aux favoris
© 2013-2018 METAR - Tous droits réservés